createdAt,value
2018-05-25T00:00:04.665Z,20.8
2018-05-25T00:15:05.394Z,20.7
2018-05-25T00:30:05.238Z,20.3
2018-05-25T00:45:05.373Z,20.4
2018-05-25T01:00:04.582Z,20.5
2018-05-25T01:15:05.277Z,20.3
2018-05-25T01:30:05.169Z,20.3
2018-05-25T01:45:05.099Z,20.2
2018-05-25T02:00:04.939Z,20
2018-05-25T02:15:04.710Z,20.1
2018-05-25T02:30:04.537Z,19.6
2018-05-25T02:45:05.235Z,19.9
2018-05-25T03:00:05.176Z,19.7
2018-05-25T03:15:04.833Z,19.3
2018-05-25T03:30:04.856Z,19.4
2018-05-25T03:45:04.375Z,19.3
2018-05-25T04:00:05.076Z,19.1
2018-05-25T04:15:04.607Z,18.7
2018-05-25T04:30:04.671Z,18.5
2018-05-25T04:45:04.784Z,18.3
2018-05-25T05:00:04.984Z,18.7
2018-05-25T05:15:05.135Z,19.3
2018-05-25T05:30:05.138Z,19.3
2018-05-25T05:45:05.111Z,19.4
2018-05-25T06:00:05.079Z,20.3
2018-05-25T06:15:05.207Z,20.6
2018-05-25T06:30:04.359Z,21.2
2018-05-25T06:45:04.792Z,21.7
2018-05-25T07:00:04.876Z,22.1
2018-05-25T07:15:04.357Z,23
2018-05-25T07:30:04.497Z,23.7
2018-05-25T07:45:04.464Z,24.6
2018-05-25T08:00:04.998Z,25.7
2018-05-25T08:15:04.513Z,26.2
2018-05-25T08:30:05.116Z,27.1
2018-05-25T08:45:04.622Z,28.3
2018-05-25T09:00:05.139Z,28.7
2018-05-25T09:15:05.234Z,28.7
2018-05-25T09:30:04.963Z,28.6
2018-05-25T09:45:04.934Z,28.8
2018-05-25T10:00:04.463Z,29.1
2018-05-25T10:15:04.865Z,29.1
2018-05-25T10:30:04.817Z,28.8
2018-05-25T10:45:04.486Z,28.6
2018-05-25T11:00:04.494Z,28.6
2018-05-25T11:15:04.457Z,28.6
2018-05-25T11:30:04.644Z,28.3
2018-05-25T11:45:04.813Z,28.3
2018-05-25T12:00:04.753Z,28.3
2018-05-25T12:15:04.778Z,28.3
2018-05-25T12:30:04.950Z,28.3
2018-05-25T12:45:04.895Z,28.2
2018-05-25T13:00:04.825Z,28.5
2018-05-25T13:15:04.292Z,28.3
2018-05-25T13:30:04.960Z,28.4
2018-05-25T13:45:05.090Z,28.5
2018-05-25T14:00:04.533Z,28.6
2018-05-25T14:15:04.829Z,28.5
2018-05-25T14:30:04.617Z,28.6
2018-05-25T14:45:05.175Z,28.6
2018-05-25T15:00:05.112Z,28.6
2018-05-25T15:15:04.586Z,28.5
2018-05-25T15:30:04.265Z,28.8
2018-05-25T15:45:04.200Z,28.8
2018-05-25T16:00:04.867Z,28.9
2018-05-25T16:15:10.929Z,28.7
2018-05-25T16:30:05.792Z,28.8
2018-05-25T16:45:05.129Z,28.7
2018-05-25T17:00:05.153Z,28.8
2018-05-25T17:15:04.810Z,28.6
2018-05-25T17:30:04.815Z,28.6
2018-05-25T17:45:04.923Z,28.3
2018-05-25T18:00:05.083Z,28.1
2018-05-25T18:15:04.551Z,27.7
2018-05-25T18:30:04.459Z,27.3
2018-05-25T18:45:04.553Z,27
2018-05-25T19:00:05.037Z,26.5
2018-05-25T19:15:05.230Z,26.2
2018-05-25T19:30:04.369Z,25.9
2018-05-25T19:45:05.084Z,24.9
2018-05-25T20:00:05.080Z,24.9
2018-05-25T20:15:04.611Z,24.6
2018-05-25T20:30:04.821Z,24.2
2018-05-25T20:45:04.302Z,23.9
2018-05-25T21:00:04.306Z,24.1
2018-05-25T21:15:05.023Z,23.2
2018-05-25T21:30:05.157Z,23.4
2018-05-25T21:45:05.409Z,23.2
2018-05-25T22:00:05.054Z,23.2
2018-05-25T22:15:05.573Z,22.9
2018-05-25T22:30:04.439Z,22
2018-05-25T22:45:04.851Z,22.2
2018-05-25T23:00:04.508Z,21.9
2018-05-25T23:15:05.208Z,22.2
2018-05-25T23:30:04.974Z,22
2018-05-25T23:45:05.135Z,21.9
